sensor_id;sensor_type;location;lat;lon;timestamp;P1;durP1;ratioP1;P2;durP2;ratioP2
13741;SDS011;8461;52.356;10.704;2022-12-13T00:00:03;24.70;;;12.60;;
13741;SDS011;8461;52.356;10.704;2022-12-13T00:02:30;24.58;;;11.48;;
13741;SDS011;8461;52.356;10.704;2022-12-13T00:04:55;24.00;;;12.20;;
13741;SDS011;8461;52.356;10.704;2022-12-13T00:07:21;23.87;;;11.03;;
13741;SDS011;8461;52.356;10.704;2022-12-13T00:09:46;22.57;;;11.83;;
13741;SDS011;8461;52.356;10.704;2022-12-13T00:12:12;18.57;;;10.30;;
13741;SDS011;8461;52.356;10.704;2022-12-13T00:14:37;24.23;;;11.67;;
13741;SDS011;8461;52.356;10.704;2022-12-13T00:17:03;19.77;;;10.83;;
13741;SDS011;8461;52.356;10.704;2022-12-13T00:19:29;23.70;;;11.50;;
13741;SDS011;8461;52.356;10.704;2022-12-13T00:21:54;21.53;;;9.80;;
13741;SDS011;8461;52.356;10.704;2022-12-13T00:24:20;23.10;;;11.43;;
13741;SDS011;8461;52.356;10.704;2022-12-13T00:26:45;22.80;;;11.57;;
13741;SDS011;8461;52.356;10.704;2022-12-13T00:29:11;17.97;;;9.10;;
13741;SDS011;8461;52.356;10.704;2022-12-13T00:31:36;20.83;;;10.03;;
13741;SDS011;8461;52.356;10.704;2022-12-13T00:34:02;21.43;;;11.03;;
13741;SDS011;8461;52.356;10.704;2022-12-13T00:36:28;24.73;;;11.67;;
13741;SDS011;8461;52.356;10.704;2022-12-13T00:38:53;19.47;;;10.73;;
13741;SDS011;8461;52.356;10.704;2022-12-13T00:41:27;20.65;;;10.77;;
13741;SDS011;8461;52.356;10.704;2022-12-13T00:43:57;22.65;;;11.32;;
13741;SDS011;8461;52.356;10.704;2022-12-13T00:46:23;21.52;;;10.93;;
13741;SDS011;8461;52.356;10.704;2022-12-13T00:48:50;22.90;;;11.05;;
13741;SDS011;8461;52.356;10.704;2022-12-13T00:51:18;23.05;;;11.45;;
13741;SDS011;8461;52.356;10.704;2022-12-13T00:53:44;21.77;;;11.43;;
13741;SDS011;8461;52.356;10.704;2022-12-13T00:56:10;22.73;;;9.93;;
13741;SDS011;8461;52.356;10.704;2022-12-13T00:58:37;23.23;;;10.32;;
13741;SDS011;8461;52.356;10.704;2022-12-13T01:01:04;22.20;;;11.13;;
13741;SDS011;8461;52.356;10.704;2022-12-13T01:03:32;21.45;;;11.45;;
13741;SDS011;8461;52.356;10.704;2022-12-13T01:05:58;16.43;;;8.90;;
13741;SDS011;8461;52.356;10.704;2022-12-13T01:08:24;18.83;;;9.50;;
13741;SDS011;8461;52.356;10.704;2022-12-13T01:10:49;20.27;;;9.80;;
13741;SDS011;8461;52.356;10.704;2022-12-13T01:13:15;22.10;;;9.87;;
13741;SDS011;8461;52.356;10.704;2022-12-13T01:15:41;18.40;;;10.53;;
13741;SDS011;8461;52.356;10.704;2022-12-13T01:18:07;19.45;;;9.43;;
13741;SDS011;8461;52.356;10.704;2022-12-13T01:20:34;19.65;;;9.27;;
13741;SDS011;8461;52.356;10.704;2022-12-13T01:23:00;19.90;;;8.93;;
13741;SDS011;8461;52.356;10.704;2022-12-13T01:25:25;22.97;;;11.13;;
13741;SDS011;8461;52.356;10.704;2022-12-13T01:27:51;18.27;;;9.43;;
13741;SDS011;8461;52.356;10.704;2022-12-13T01:30:16;20.03;;;10.97;;
13741;SDS011;8461;52.356;10.704;2022-12-13T01:32:42;19.50;;;9.93;;
13741;SDS011;8461;52.356;10.704;2022-12-13T01:35:07;18.43;;;9.03;;
13741;SDS011;8461;52.356;10.704;2022-12-13T01:37:33;21.73;;;9.67;;
13741;SDS011;8461;52.356;10.704;2022-12-13T01:40:00;22.40;;;10.30;;
13741;SDS011;8461;52.356;10.704;2022-12-13T01:42:27;20.95;;;10.57;;
13741;SDS011;8461;52.356;10.704;2022-12-13T01:47:45;23.00;;;10.23;;
13741;SDS011;8461;52.356;10.704;2022-12-13T01:50:16;19.40;;;9.90;;
13741;SDS011;8461;52.356;10.704;2022-12-13T01:52:45;20.30;;;8.85;;
13741;SDS011;8461;52.356;10.704;2022-12-13T01:55:11;21.13;;;9.40;;
13741;SDS011;8461;52.356;10.704;2022-12-13T01:57:40;21.42;;;11.48;;
13741;SDS011;8461;52.356;10.704;2022-12-13T02:00:08;24.60;;;12.02;;
13741;SDS011;8461;52.356;10.704;2022-12-13T02:02:34;24.10;;;10.90;;
13741;SDS011;8461;52.356;10.704;2022-12-13T02:05:43;19.75;;;11.63;;
13741;SDS011;8461;52.356;10.704;2022-12-13T02:07:58;24.42;;;11.38;;
13741;SDS011;8461;52.356;10.704;2022-12-13T02:10:25;19.15;;;10.68;;
13741;SDS011;8461;52.356;10.704;2022-12-13T02:12:52;19.38;;;9.82;;
13741;SDS011;8461;52.356;10.704;2022-12-13T02:15:18;18.42;;;8.57;;
13741;SDS011;8461;52.356;10.704;2022-12-13T02:28:40;15.85;;;8.07;;
13741;SDS011;8461;52.356;10.704;2022-12-13T02:31:34;19.70;;;7.82;;
13741;SDS011;8461;52.356;10.704;2022-12-13T02:34:15;16.05;;;7.43;;
13741;SDS011;8461;52.356;10.704;2022-12-13T02:36:52;15.52;;;7.75;;
13741;SDS011;8461;52.356;10.704;2022-12-13T02:39:31;15.85;;;8.60;;
13741;SDS011;8461;52.356;10.704;2022-12-13T02:42:03;20.98;;;8.65;;
13741;SDS011;8461;52.356;10.704;2022-12-13T02:44:44;14.20;;;7.63;;
13741;SDS011;8461;52.356;10.704;2022-12-13T02:47:19;16.05;;;8.60;;
13741;SDS011;8461;52.356;10.704;2022-12-13T02:49:47;15.30;;;7.18;;
13741;SDS011;8461;52.356;10.704;2022-12-13T02:52:16;17.77;;;8.02;;
13741;SDS011;8461;52.356;10.704;2022-12-13T02:54:45;17.77;;;8.88;;
13741;SDS011;8461;52.356;10.704;2022-12-13T02:57:28;17.55;;;8.95;;
13741;SDS011;8461;52.356;10.704;2022-12-13T03:00:10;16.27;;;8.18;;
13741;SDS011;8461;52.356;10.704;2022-12-13T03:02:44;18.77;;;8.15;;
13741;SDS011;8461;52.356;10.704;2022-12-13T03:11:14;19.25;;;8.15;;
13741;SDS011;8461;52.356;10.704;2022-12-13T03:19:06;16.92;;;8.73;;
13741;SDS011;8461;52.356;10.704;2022-12-13T03:21:37;19.38;;;8.20;;
13741;SDS011;8461;52.356;10.704;2022-12-13T03:24:07;15.73;;;8.80;;
13741;SDS011;8461;52.356;10.704;2022-12-13T03:26:33;21.50;;;9.27;;
13741;SDS011;8461;52.356;10.704;2022-12-13T03:29:00;23.25;;;10.25;;
13741;SDS011;8461;52.356;10.704;2022-12-13T03:31:26;19.83;;;8.97;;
13741;SDS011;8461;52.356;10.704;2022-12-13T03:33:51;23.20;;;8.97;;
13741;SDS011;8461;52.356;10.704;2022-12-13T03:36:17;19.70;;;8.67;;
13741;SDS011;8461;52.356;10.704;2022-12-13T03:38:43;19.00;;;8.20;;
13741;SDS011;8461;52.356;10.704;2022-12-13T03:41:12;17.70;;;7.63;;
13741;SDS011;8461;52.356;10.704;2022-12-13T03:43:40;19.92;;;9.45;;
13741;SDS011;8461;52.356;10.704;2022-12-13T03:46:06;16.87;;;9.17;;
13741;SDS011;8461;52.356;10.704;2022-12-13T03:48:32;25.20;;;10.30;;
13741;SDS011;8461;52.356;10.704;2022-12-13T03:50:58;17.03;;;8.30;;
13741;SDS011;8461;52.356;10.704;2022-12-13T03:53:24;18.80;;;8.85;;
13741;SDS011;8461;52.356;10.704;2022-12-13T03:55:50;16.88;;;8.13;;
13741;SDS011;8461;52.356;10.704;2022-12-13T03:58:16;21.53;;;8.67;;
13741;SDS011;8461;52.356;10.704;2022-12-13T04:00:42;16.63;;;8.38;;
13741;SDS011;8461;52.356;10.704;2022-12-13T04:03:08;19.33;;;8.77;;
13741;SDS011;8461;52.356;10.704;2022-12-13T04:05:33;20.80;;;8.77;;
13741;SDS011;8461;52.356;10.704;2022-12-13T04:07:59;17.83;;;8.57;;
13741;SDS011;8461;52.356;10.704;2022-12-13T04:10:25;15.30;;;7.95;;
13741;SDS011;8461;52.356;10.704;2022-12-13T04:12:51;18.87;;;9.00;;
13741;SDS011;8461;52.356;10.704;2022-12-13T04:15:35;16.67;;;8.23;;
13741;SDS011;8461;52.356;10.704;2022-12-13T04:18:00;14.40;;;7.17;;
13741;SDS011;8461;52.356;10.704;2022-12-13T04:20:26;15.70;;;8.87;;
13741;SDS011;8461;52.356;10.704;2022-12-13T04:22:51;16.50;;;7.80;;
13741;SDS011;8461;52.356;10.704;2022-12-13T04:25:17;16.93;;;8.37;;
13741;SDS011;8461;52.356;10.704;2022-12-13T04:27:43;15.70;;;7.90;;
13741;SDS011;8461;52.356;10.704;2022-12-13T04:30:09;16.45;;;7.90;;
13741;SDS011;8461;52.356;10.704;2022-12-13T04:32:35;18.10;;;8.13;;
13741;SDS011;8461;52.356;10.704;2022-12-13T04:35:01;17.13;;;8.30;;
13741;SDS011;8461;52.356;10.704;2022-12-13T04:37:26;14.20;;;7.43;;
13741;SDS011;8461;52.356;10.704;2022-12-13T04:39:52;14.23;;;6.83;;
13741;SDS011;8461;52.356;10.704;2022-12-13T04:42:17;18.30;;;7.93;;
13741;SDS011;8461;52.356;10.704;2022-12-13T04:44:43;18.20;;;8.07;;
13741;SDS011;8461;52.356;10.704;2022-12-13T04:47:08;14.50;;;8.03;;
13741;SDS011;8461;52.356;10.704;2022-12-13T04:49:34;16.83;;;7.77;;
13741;SDS011;8461;52.356;10.704;2022-12-13T04:52:00;12.83;;;7.47;;
13741;SDS011;8461;52.356;10.704;2022-12-13T04:54:26;16.60;;;7.90;;
13741;SDS011;8461;52.356;10.704;2022-12-13T04:56:52;14.37;;;8.43;;
13741;SDS011;8461;52.356;10.704;2022-12-13T04:59:17;16.37;;;7.80;;
13741;SDS011;8461;52.356;10.704;2022-12-13T05:01:43;14.73;;;7.40;;
13741;SDS011;8461;52.356;10.704;2022-12-13T05:04:08;17.17;;;8.63;;
13741;SDS011;8461;52.356;10.704;2022-12-13T05:06:34;19.67;;;10.17;;
13741;SDS011;8461;52.356;10.704;2022-12-13T05:09:00;15.67;;;8.30;;
13741;SDS011;8461;52.356;10.704;2022-12-13T05:11:26;15.43;;;8.30;;
13741;SDS011;8461;52.356;10.704;2022-12-13T05:13:51;19.37;;;8.83;;
13741;SDS011;8461;52.356;10.704;2022-12-13T05:16:17;17.33;;;8.40;;
13741;SDS011;8461;52.356;10.704;2022-12-13T05:18:42;16.40;;;7.80;;
13741;SDS011;8461;52.356;10.704;2022-12-13T05:21:09;14.63;;;8.17;;
13741;SDS011;8461;52.356;10.704;2022-12-13T05:23:36;16.63;;;7.70;;
13741;SDS011;8461;52.356;10.704;2022-12-13T05:26:02;16.83;;;8.02;;
13741;SDS011;8461;52.356;10.704;2022-12-13T05:28:28;16.85;;;8.38;;
13741;SDS011;8461;52.356;10.704;2022-12-13T05:30:55;17.60;;;8.68;;
13741;SDS011;8461;52.356;10.704;2022-12-13T05:33:22;17.65;;;8.85;;
13741;SDS011;8461;52.356;10.704;2022-12-13T05:35:49;22.75;;;9.02;;
13741;SDS011;8461;52.356;10.704;2022-12-13T05:38:15;18.50;;;8.43;;
13741;SDS011;8461;52.356;10.704;2022-12-13T05:40:41;18.87;;;7.37;;
13741;SDS011;8461;52.356;10.704;2022-12-13T05:43:06;15.93;;;7.07;;
13741;SDS011;8461;52.356;10.704;2022-12-13T05:45:33;15.57;;;7.55;;
13741;SDS011;8461;52.356;10.704;2022-12-13T05:47:58;14.47;;;7.97;;
13741;SDS011;8461;52.356;10.704;2022-12-13T05:50:24;17.37;;;9.13;;
13741;SDS011;8461;52.356;10.704;2022-12-13T05:52:50;19.33;;;9.27;;
13741;SDS011;8461;52.356;10.704;2022-12-13T05:55:16;15.05;;;8.02;;
13741;SDS011;8461;52.356;10.704;2022-12-13T05:57:41;17.63;;;9.50;;
13741;SDS011;8461;52.356;10.704;2022-12-13T06:00:08;11.40;;;6.23;;
13741;SDS011;8461;52.356;10.704;2022-12-13T06:02:41;15.75;;;7.75;;
13741;SDS011;8461;52.356;10.704;2022-12-13T06:05:08;14.50;;;7.57;;
13741;SDS011;8461;52.356;10.704;2022-12-13T06:07:34;15.30;;;7.07;;
13741;SDS011;8461;52.356;10.704;2022-12-13T06:10:00;15.20;;;7.10;;
13741;SDS011;8461;52.356;10.704;2022-12-13T06:12:26;13.93;;;7.00;;
13741;SDS011;8461;52.356;10.704;2022-12-13T06:14:51;13.10;;;6.53;;
13741;SDS011;8461;52.356;10.704;2022-12-13T06:17:17;15.97;;;6.83;;
13741;SDS011;8461;52.356;10.704;2022-12-13T06:19:43;14.63;;;6.70;;
13741;SDS011;8461;52.356;10.704;2022-12-13T06:22:10;15.60;;;7.85;;
13741;SDS011;8461;52.356;10.704;2022-12-13T06:24:36;14.77;;;7.93;;
13741;SDS011;8461;52.356;10.704;2022-12-13T06:27:01;18.30;;;7.97;;
13741;SDS011;8461;52.356;10.704;2022-12-13T06:29:29;13.75;;;7.45;;
13741;SDS011;8461;52.356;10.704;2022-12-13T06:31:56;12.93;;;6.40;;
13741;SDS011;8461;52.356;10.704;2022-12-13T06:34:23;14.30;;;6.78;;
13741;SDS011;8461;52.356;10.704;2022-12-13T06:36:48;12.77;;;6.53;;
13741;SDS011;8461;52.356;10.704;2022-12-13T06:39:14;14.57;;;7.30;;
13741;SDS011;8461;52.356;10.704;2022-12-13T06:41:40;14.05;;;7.93;;
13741;SDS011;8461;52.356;10.704;2022-12-13T06:44:06;15.57;;;7.43;;
13741;SDS011;8461;52.356;10.704;2022-12-13T06:46:32;15.52;;;8.30;;
13741;SDS011;8461;52.356;10.704;2022-12-13T06:48:58;13.53;;;7.17;;
13741;SDS011;8461;52.356;10.704;2022-12-13T06:51:23;14.50;;;7.57;;
13741;SDS011;8461;52.356;10.704;2022-12-13T06:53:49;19.97;;;10.20;;
13741;SDS011;8461;52.356;10.704;2022-12-13T06:56:15;23.13;;;11.40;;
13741;SDS011;8461;52.356;10.704;2022-12-13T06:58:40;24.33;;;10.93;;
13741;SDS011;8461;52.356;10.704;2022-12-13T07:01:11;20.05;;;9.25;;
13741;SDS011;8461;52.356;10.704;2022-12-13T07:03:38;20.98;;;9.88;;
13741;SDS011;8461;52.356;10.704;2022-12-13T07:06:25;25.37;;;10.93;;
13741;SDS011;8461;52.356;10.704;2022-12-13T07:08:51;25.55;;;11.07;;
13741;SDS011;8461;52.356;10.704;2022-12-13T07:11:20;22.20;;;9.02;;
13741;SDS011;8461;52.356;10.704;2022-12-13T07:13:47;17.02;;;8.30;;
13741;SDS011;8461;52.356;10.704;2022-12-13T07:16:13;17.10;;;6.87;;
13741;SDS011;8461;52.356;10.704;2022-12-13T07:18:39;15.25;;;7.68;;
13741;SDS011;8461;52.356;10.704;2022-12-13T07:21:05;19.08;;;8.98;;
13741;SDS011;8461;52.356;10.704;2022-12-13T07:23:35;16.15;;;8.23;;
13741;SDS011;8461;52.356;10.704;2022-12-13T07:26:02;17.45;;;8.93;;
13741;SDS011;8461;52.356;10.704;2022-12-13T07:28:30;19.38;;;9.55;;
13741;SDS011;8461;52.356;10.704;2022-12-13T07:30:59;15.32;;;7.70;;
13741;SDS011;8461;52.356;10.704;2022-12-13T07:33:29;16.40;;;7.85;;
13741;SDS011;8461;52.356;10.704;2022-12-13T07:38:34;15.82;;;7.80;;
13741;SDS011;8461;52.356;10.704;2022-12-13T07:41:00;14.63;;;7.30;;
13741;SDS011;8461;52.356;10.704;2022-12-13T07:43:26;20.10;;;9.23;;
13741;SDS011;8461;52.356;10.704;2022-12-13T07:45:53;26.38;;;11.13;;
13741;SDS011;8461;52.356;10.704;2022-12-13T07:48:18;28.27;;;13.00;;
13741;SDS011;8461;52.356;10.704;2022-12-13T07:50:44;27.07;;;12.27;;
13741;SDS011;8461;52.356;10.704;2022-12-13T07:53:10;24.40;;;11.70;;
13741;SDS011;8461;52.356;10.704;2022-12-13T07:55:36;24.63;;;10.97;;
13741;SDS011;8461;52.356;10.704;2022-12-13T07:58:06;26.75;;;12.77;;
13741;SDS011;8461;52.356;10.704;2022-12-13T08:00:34;25.17;;;12.45;;
13741;SDS011;8461;52.356;10.704;2022-12-13T08:03:00;21.83;;;11.52;;
13741;SDS011;8461;52.356;10.704;2022-12-13T08:05:26;25.13;;;11.40;;
13741;SDS011;8461;52.356;10.704;2022-12-13T08:07:52;22.73;;;11.00;;
13741;SDS011;8461;52.356;10.704;2022-12-13T08:10:18;20.47;;;10.83;;
13741;SDS011;8461;52.356;10.704;2022-12-13T08:12:44;18.58;;;9.45;;
13741;SDS011;8461;52.356;10.704;2022-12-13T08:15:09;21.13;;;9.93;;
13741;SDS011;8461;52.356;10.704;2022-12-13T08:17:35;19.20;;;9.70;;
13741;SDS011;8461;52.356;10.704;2022-12-13T08:20:01;19.03;;;10.57;;
13741;SDS011;8461;52.356;10.704;2022-12-13T08:22:26;28.07;;;11.10;;
13741;SDS011;8461;52.356;10.704;2022-12-13T08:24:52;22.77;;;10.10;;
13741;SDS011;8461;52.356;10.704;2022-12-13T08:27:17;23.53;;;10.77;;
13741;SDS011;8461;52.356;10.704;2022-12-13T08:29:43;20.27;;;9.73;;
13741;SDS011;8461;52.356;10.704;2022-12-13T08:32:09;20.43;;;10.27;;
13741;SDS011;8461;52.356;10.704;2022-12-13T08:34:36;21.55;;;10.35;;
13741;SDS011;8461;52.356;10.704;2022-12-13T08:37:02;25.65;;;10.80;;
13741;SDS011;8461;52.356;10.704;2022-12-13T08:39:29;21.02;;;10.45;;
13741;SDS011;8461;52.356;10.704;2022-12-13T08:41:55;22.83;;;9.95;;
13741;SDS011;8461;52.356;10.704;2022-12-13T08:44:20;21.83;;;11.47;;
13741;SDS011;8461;52.356;10.704;2022-12-13T08:46:46;24.23;;;11.67;;
13741;SDS011;8461;52.356;10.704;2022-12-13T08:49:12;22.63;;;11.43;;
13741;SDS011;8461;52.356;10.704;2022-12-13T08:51:37;23.83;;;12.33;;
13741;SDS011;8461;52.356;10.704;2022-12-13T08:54:03;19.63;;;10.57;;
13741;SDS011;8461;52.356;10.704;2022-12-13T08:56:28;22.67;;;9.83;;
13741;SDS011;8461;52.356;10.704;2022-12-13T08:58:54;25.93;;;11.90;;
13741;SDS011;8461;52.356;10.704;2022-12-13T09:01:19;17.30;;;9.87;;
13741;SDS011;8461;52.356;10.704;2022-12-13T09:03:45;20.90;;;12.07;;
13741;SDS011;8461;52.356;10.704;2022-12-13T09:06:12;26.30;;;13.17;;
13741;SDS011;8461;52.356;10.704;2022-12-13T09:08:40;22.92;;;12.20;;
13741;SDS011;8461;52.356;10.704;2022-12-13T09:11:07;24.90;;;12.60;;
13741;SDS011;8461;52.356;10.704;2022-12-13T09:13:34;29.38;;;15.38;;
13741;SDS011;8461;52.356;10.704;2022-12-13T09:16:12;33.17;;;16.50;;
13741;SDS011;8461;52.356;10.704;2022-12-13T09:18:39;24.57;;;12.77;;
13741;SDS011;8461;52.356;10.704;2022-12-13T09:21:06;24.77;;;13.47;;
13741;SDS011;8461;52.356;10.704;2022-12-13T09:23:33;22.60;;;13.10;;
13741;SDS011;8461;52.356;10.704;2022-12-13T09:25:58;17.43;;;12.60;;
13741;SDS011;8461;52.356;10.704;2022-12-13T09:28:25;20.73;;;12.63;;
13741;SDS011;8461;52.356;10.704;2022-12-13T09:30:52;22.83;;;13.30;;
13741;SDS011;8461;52.356;10.704;2022-12-13T09:33:17;22.27;;;12.47;;
13741;SDS011;8461;52.356;10.704;2022-12-13T09:35:43;23.90;;;13.13;;
13741;SDS011;8461;52.356;10.704;2022-12-13T09:38:09;30.47;;;14.17;;
13741;SDS011;8461;52.356;10.704;2022-12-13T09:40:34;20.13;;;12.00;;
13741;SDS011;8461;52.356;10.704;2022-12-13T09:43:02;22.27;;;12.53;;
13741;SDS011;8461;52.356;10.704;2022-12-13T09:45:29;30.00;;;16.03;;
13741;SDS011;8461;52.356;10.704;2022-12-13T09:47:56;31.20;;;13.80;;
13741;SDS011;8461;52.356;10.704;2022-12-13T09:50:27;26.13;;;15.17;;
13741;SDS011;8461;52.356;10.704;2022-12-13T09:52:56;31.53;;;17.40;;
13741;SDS011;8461;52.356;10.704;2022-12-13T09:55:25;31.63;;;16.77;;
13741;SDS011;8461;52.356;10.704;2022-12-13T09:58:07;25.50;;;14.93;;
13741;SDS011;8461;52.356;10.704;2022-12-13T10:00:38;25.30;;;13.90;;
13741;SDS011;8461;52.356;10.704;2022-12-13T10:03:04;22.00;;;13.73;;
13741;SDS011;8461;52.356;10.704;2022-12-13T10:05:34;24.47;;;12.20;;
13741;SDS011;8461;52.356;10.704;2022-12-13T10:08:05;22.83;;;12.30;;
13741;SDS011;8461;52.356;10.704;2022-12-13T10:10:42;23.80;;;11.47;;
13741;SDS011;8461;52.356;10.704;2022-12-13T10:13:14;17.00;;;9.87;;
13741;SDS011;8461;52.356;10.704;2022-12-13T10:15:58;18.27;;;11.57;;
13741;SDS011;8461;52.356;10.704;2022-12-13T10:18:36;21.23;;;11.57;;
13741;SDS011;8461;52.356;10.704;2022-12-13T10:21:24;20.73;;;11.17;;
13741;SDS011;8461;52.356;10.704;2022-12-13T10:23:53;20.07;;;11.67;;
13741;SDS011;8461;52.356;10.704;2022-12-13T10:26:25;21.07;;;11.03;;
13741;SDS011;8461;52.356;10.704;2022-12-13T10:28:55;20.33;;;11.37;;
13741;SDS011;8461;52.356;10.704;2022-12-13T10:31:27;22.57;;;13.03;;
13741;SDS011;8461;52.356;10.704;2022-12-13T10:33:53;23.63;;;14.70;;
13741;SDS011;8461;52.356;10.704;2022-12-13T10:36:33;24.43;;;15.03;;
13741;SDS011;8461;52.356;10.704;2022-12-13T10:39:02;26.37;;;13.00;;
13741;SDS011;8461;52.356;10.704;2022-12-13T10:41:35;21.57;;;11.90;;
13741;SDS011;8461;52.356;10.704;2022-12-13T10:46:40;20.77;;;11.87;;
13741;SDS011;8461;52.356;10.704;2022-12-13T10:49:21;20.43;;;12.03;;
13741;SDS011;8461;52.356;10.704;2022-12-13T10:51:49;17.33;;;10.43;;
13741;SDS011;8461;52.356;10.704;2022-12-13T10:54:23;20.03;;;10.57;;
13741;SDS011;8461;52.356;10.704;2022-12-13T10:56:52;17.67;;;10.33;;
13741;SDS011;8461;52.356;10.704;2022-12-13T10:59:25;18.20;;;10.30;;
13741;SDS011;8461;52.356;10.704;2022-12-13T11:01:55;16.50;;;10.90;;
13741;SDS011;8461;52.356;10.704;2022-12-13T11:04:26;17.00;;;9.53;;
13741;SDS011;8461;52.356;10.704;2022-12-13T11:06:57;17.43;;;10.77;;
13741;SDS011;8461;52.356;10.704;2022-12-13T11:09:32;19.77;;;11.63;;
13741;SDS011;8461;52.356;10.704;2022-12-13T11:12:02;20.07;;;10.83;;
13741;SDS011;8461;52.356;10.704;2022-12-13T11:14:47;19.00;;;10.03;;
13741;SDS011;8461;52.356;10.704;2022-12-13T11:17:20;13.20;;;9.47;;
13741;SDS011;8461;52.356;10.704;2022-12-13T11:19:49;18.97;;;10.77;;
13741;SDS011;8461;52.356;10.704;2022-12-13T11:22:18;19.10;;;10.87;;
13741;SDS011;8461;52.356;10.704;2022-12-13T11:24:48;17.53;;;10.40;;
13741;SDS011;8461;52.356;10.704;2022-12-13T11:27:23;17.30;;;10.27;;
13741;SDS011;8461;52.356;10.704;2022-12-13T11:32:54;17.97;;;9.77;;
13741;SDS011;8461;52.356;10.704;2022-12-13T11:38:27;18.67;;;11.13;;
13741;SDS011;8461;52.356;10.704;2022-12-13T11:41:22;17.07;;;9.20;;
13741;SDS011;8461;52.356;10.704;2022-12-13T11:43:57;16.83;;;9.77;;
13741;SDS011;8461;52.356;10.704;2022-12-13T11:46:36;17.13;;;9.77;;
13741;SDS011;8461;52.356;10.704;2022-12-13T11:49:08;18.53;;;9.80;;
13741;SDS011;8461;52.356;10.704;2022-12-13T11:51:45;12.20;;;8.70;;
13741;SDS011;8461;52.356;10.704;2022-12-13T11:54:22;11.97;;;8.33;;
13741;SDS011;8461;52.356;10.704;2022-12-13T11:56:53;12.27;;;8.03;;
13741;SDS011;8461;52.356;10.704;2022-12-13T11:59:38;12.10;;;7.00;;
13741;SDS011;8461;52.356;10.704;2022-12-13T12:05:09;10.80;;;6.83;;
13741;SDS011;8461;52.356;10.704;2022-12-13T12:07:48;13.33;;;7.40;;
13741;SDS011;8461;52.356;10.704;2022-12-13T12:18:46;12.33;;;7.17;;
13741;SDS011;8461;52.356;10.704;2022-12-13T12:21:15;13.70;;;7.57;;
13741;SDS011;8461;52.356;10.704;2022-12-13T12:24:29;12.87;;;7.17;;
13741;SDS011;8461;52.356;10.704;2022-12-13T12:26:49;12.97;;;6.70;;
13741;SDS011;8461;52.356;10.704;2022-12-13T12:32:18;14.93;;;8.33;;
13741;SDS011;8461;52.356;10.704;2022-12-13T12:37:43;14.23;;;8.30;;
13741;SDS011;8461;52.356;10.704;2022-12-13T12:43:16;14.87;;;7.63;;
13741;SDS011;8461;52.356;10.704;2022-12-13T12:49:10;12.83;;;8.30;;
13741;SDS011;8461;52.356;10.704;2022-12-13T12:57:48;18.33;;;9.83;;
13741;SDS011;8461;52.356;10.704;2022-12-13T13:00:39;15.43;;;9.03;;
13741;SDS011;8461;52.356;10.704;2022-12-13T13:08:52;15.53;;;8.40;;
13741;SDS011;8461;52.356;10.704;2022-12-13T13:11:23;16.70;;;9.87;;
13741;SDS011;8461;52.356;10.704;2022-12-13T13:18:51;14.83;;;8.70;;
13741;SDS011;8461;52.356;10.704;2022-12-13T13:24:05;13.73;;;9.43;;
13741;SDS011;8461;52.356;10.704;2022-12-13T13:26:31;20.40;;;9.57;;
13741;SDS011;8461;52.356;10.704;2022-12-13T13:29:21;19.90;;;9.00;;
13741;SDS011;8461;52.356;10.704;2022-12-13T13:31:54;12.47;;;8.50;;
13741;SDS011;8461;52.356;10.704;2022-12-13T13:34:25;14.50;;;8.20;;
13741;SDS011;8461;52.356;10.704;2022-12-13T13:36:52;16.07;;;9.40;;
13741;SDS011;8461;52.356;10.704;2022-12-13T13:41:53;15.47;;;9.03;;
13741;SDS011;8461;52.356;10.704;2022-12-13T13:47:16;16.20;;;9.13;;
13741;SDS011;8461;52.356;10.704;2022-12-13T14:04:00;15.57;;;8.27;;
13741;SDS011;8461;52.356;10.704;2022-12-13T14:15:46;15.83;;;9.80;;
13741;SDS011;8461;52.356;10.704;2022-12-13T14:23:39;14.83;;;8.97;;
13741;SDS011;8461;52.356;10.704;2022-12-13T14:28:59;17.73;;;8.33;;
13741;SDS011;8461;52.356;10.704;2022-12-13T14:31:31;14.63;;;8.40;;
13741;SDS011;8461;52.356;10.704;2022-12-13T14:34:01;15.40;;;9.13;;
13741;SDS011;8461;52.356;10.704;2022-12-13T14:36:28;15.13;;;8.83;;
13741;SDS011;8461;52.356;10.704;2022-12-13T14:41:29;15.77;;;9.40;;
13741;SDS011;8461;52.356;10.704;2022-12-13T14:44:11;18.57;;;10.43;;
13741;SDS011;8461;52.356;10.704;2022-12-13T14:46:59;16.97;;;9.97;;
13741;SDS011;8461;52.356;10.704;2022-12-13T14:49:27;16.90;;;10.37;;
13741;SDS011;8461;52.356;10.704;2022-12-13T14:51:59;21.57;;;10.50;;
13741;SDS011;8461;52.356;10.704;2022-12-13T14:54:30;20.67;;;11.37;;
13741;SDS011;8461;52.356;10.704;2022-12-13T14:57:18;21.20;;;11.83;;
13741;SDS011;8461;52.356;10.704;2022-12-13T14:59:46;19.87;;;11.77;;
13741;SDS011;8461;52.356;10.704;2022-12-13T15:02:16;18.73;;;11.80;;
13741;SDS011;8461;52.356;10.704;2022-12-13T15:04:44;19.83;;;11.60;;
13741;SDS011;8461;52.356;10.704;2022-12-13T15:07:15;17.80;;;10.20;;
13741;SDS011;8461;52.356;10.704;2022-12-13T15:09:51;18.87;;;11.23;;
13741;SDS011;8461;52.356;10.704;2022-12-13T15:12:19;20.33;;;11.67;;
13741;SDS011;8461;52.356;10.704;2022-12-13T15:14:50;23.10;;;13.40;;
13741;SDS011;8461;52.356;10.704;2022-12-13T15:20:00;34.60;;;17.20;;
13741;SDS011;8461;52.356;10.704;2022-12-13T15:22:41;27.60;;;16.13;;
13741;SDS011;8461;52.356;10.704;2022-12-13T15:25:11;36.53;;;19.50;;
13741;SDS011;8461;52.356;10.704;2022-12-13T15:27:38;29.03;;;15.73;;
13741;SDS011;8461;52.356;10.704;2022-12-13T15:30:04;28.83;;;14.50;;
13741;SDS011;8461;52.356;10.704;2022-12-13T15:32:30;23.97;;;13.67;;
13741;SDS011;8461;52.356;10.704;2022-12-13T15:34:55;19.20;;;11.83;;
13741;SDS011;8461;52.356;10.704;2022-12-13T15:37:25;14.40;;;9.80;;
13741;SDS011;8461;52.356;10.704;2022-12-13T15:39:56;15.10;;;9.50;;
13741;SDS011;8461;52.356;10.704;2022-12-13T15:42:30;16.10;;;10.80;;
13741;SDS011;8461;52.356;10.704;2022-12-13T15:45:02;18.63;;;11.30;;
13741;SDS011;8461;52.356;10.704;2022-12-13T15:47:30;20.60;;;11.87;;
13741;SDS011;8461;52.356;10.704;2022-12-13T15:50:00;23.30;;;10.00;;
13741;SDS011;8461;52.356;10.704;2022-12-13T15:57:45;20.57;;;11.40;;
13741;SDS011;8461;52.356;10.704;2022-12-13T16:03:23;14.63;;;9.30;;
13741;SDS011;8461;52.356;10.704;2022-12-13T16:05:32;15.90;;;8.47;;
13741;SDS011;8461;52.356;10.704;2022-12-13T16:08:00;17.57;;;8.67;;
13741;SDS011;8461;52.356;10.704;2022-12-13T16:10:31;13.30;;;8.07;;
13741;SDS011;8461;52.356;10.704;2022-12-13T16:12:59;15.63;;;9.13;;
13741;SDS011;8461;52.356;10.704;2022-12-13T16:15:28;15.27;;;9.37;;
13741;SDS011;8461;52.356;10.704;2022-12-13T16:18:06;15.87;;;9.13;;
13741;SDS011;8461;52.356;10.704;2022-12-13T16:20:40;15.33;;;8.90;;
13741;SDS011;8461;52.356;10.704;2022-12-13T16:23:07;14.60;;;7.93;;
13741;SDS011;8461;52.356;10.704;2022-12-13T16:25:33;13.37;;;8.50;;
13741;SDS011;8461;52.356;10.704;2022-12-13T16:27:58;12.63;;;8.50;;
13741;SDS011;8461;52.356;10.704;2022-12-13T16:30:25;10.97;;;7.83;;
13741;SDS011;8461;52.356;10.704;2022-12-13T16:32:53;13.37;;;7.73;;
13741;SDS011;8461;52.356;10.704;2022-12-13T16:35:19;20.03;;;10.00;;
13741;SDS011;8461;52.356;10.704;2022-12-13T16:37:45;16.43;;;9.80;;
13741;SDS011;8461;52.356;10.704;2022-12-13T16:42:48;14.47;;;8.97;;
13741;SDS011;8461;52.356;10.704;2022-12-13T16:45:13;16.50;;;8.87;;
13741;SDS011;8461;52.356;10.704;2022-12-13T16:47:39;14.90;;;7.07;;
13741;SDS011;8461;52.356;10.704;2022-12-13T16:50:09;12.63;;;6.60;;